KLSE/LSE METAR and TAF weather

Enter ICAO airport designator
Station Type Date Time Source
KLSE METAR 2022/11/30 16:53 UTC NOAA

KLSE 301653Z 27022G29KT 10SM -SN BKN029 OVC035 M06/M11 A3001 RMK AO2 PK WND 30030/1555 SLP178 P0000 T10561111


Station Type Date Time Source
KLSE Decoded METAR 2022/11/30 16:53 UTC NOAA

LA CROSSE MUNICIPAL AIRPORT , WI, United States (KLSE) 43-53N 091-15W 200M
Nov 30, 2022 - 11:53 AM EST / 2022.11.30 1653 UTC
Wind: from the W (270 degrees) at 25 MPH (22 KT) gusting to 33 MPH (29 KT):0
Visibility: 10 mile(s):0
Sky conditions: overcast
Weather: light snow
Precipitation last hour: A trace
Temperature: 21.9 F (-5.6 C)
Windchill: 5 F (-15 C):1
Dew Point: 12.0 F (-11.1 C)
Relative Humidity: 65%
Pressure (altimeter): 30.01 in. Hg (1016 hPa)
ob: KLSE 301653Z 27022G29KT 10SM -SN BKN029 OVC035 M06/M11 A3001 RMK AO2 PK WND 30030/1555 SLP178 P0000 T10561111
cycle: 17

Station Type Date Time Source
KLSE TAF 2022/11/30 12:24 UTC NOAA

TAF KLSE 301123Z 3012/0112 29018G29KT P6SM -SN BKN025
FM302200 29014G24KT P6SM SCT025
FM010000 29012KT P6SM SKC
FM010700 VRB04KT P6SM SKC

Example: see airport list